Time;durP1;ratioP1;P1;durP2;ratioP2;P2;SDS_P1;SDS_P2;PMS_P1;PMS_P2;Temp;Humidity;BMP_temperature;BMP_pressure;BME280_temperature;BME280_humidity;BME280_pressure;Samples;Min_cycle;Max_cycle;Signal;HPM_P1;HPM_P2
2023/11/02 00:02:03;;;;;;;1.80;1.70;;;6.90;99.90;;;7.55;100.00;96423.59;10434251;28;20919;-66
2023/11/02 00:07:07;;;;;;;2.73;2.40;;;6.80;99.90;;;7.51;100.00;96424.28;10430750;28;20604;-65
2023/11/02 00:12:32;;;;;;;2.30;2.10;;;6.90;99.90;;;7.50;100.00;96407.28;10434402;28;20279;-65
2023/11/02 00:18:00;;;;;;;2.27;2.17;;;6.80;99.90;;;7.51;100.00;96394.66;10433717;28;20700;-65
2023/11/02 00:23:04;;;;;;;2.80;2.53;;;6.80;99.90;;;7.30;100.00;96369.16;10428578;28;20287;-65
2023/11/02 00:28:09;;;;;;;3.57;2.60;;;6.70;99.90;;;7.22;100.00;96357.75;10431444;28;20375;-65
2023/11/02 00:33:15;;;;;;;3.00;2.20;;;6.60;99.90;;;7.13;100.00;96347.19;10439529;28;20776;-64
2023/11/02 00:38:26;;;;;;;2.13;2.00;;;6.50;99.90;;;7.19;100.00;96338.16;10437846;28;20236;-65
2023/11/02 00:43:29;;;;;;;2.80;2.20;;;6.50;99.90;;;7.08;100.00;96325.78;10438944;28;20228;-64
2023/11/02 00:48:34;;;;;;;2.20;2.10;;;6.50;99.90;;;7.02;100.00;96328.91;10437953;28;20252;-64
2023/11/02 00:53:43;;;;;;;4.97;3.00;;;6.40;99.90;;;6.99;100.00;96316.06;10435838;28;20339;-64
2023/11/02 00:58:50;;;;;;;3.37;3.17;;;6.40;99.90;;;6.87;100.00;96305.34;10438091;28;20712;-64
2023/11/02 01:04:02;;;;;;;3.10;2.90;;;6.30;99.90;;;6.82;100.00;96291.56;10437584;28;20233;-64
2023/11/02 01:09:43;;;;;;;2.53;2.40;;;6.30;99.90;;;6.68;100.00;96291.78;10437696;28;20232;-65
2023/11/02 01:14:48;;;;;;;2.83;2.63;;;6.20;99.90;;;6.74;100.00;96281.91;10433965;28;20252;-65
2023/11/02 01:19:57;;;;;;;2.90;2.60;;;6.20;99.90;;;6.58;100.00;96270.97;10436520;28;20243;-65
2023/11/02 01:25:06;;;;;;;2.93;2.73;;;6.20;99.90;;;6.54;100.00;96257.28;10436127;28;20225;-64
2023/11/02 01:30:54;;;;;;;2.57;2.37;;;6.10;99.90;;;6.62;100.00;96235.66;10435578;28;20259;-65
2023/11/02 01:35:59;;;;;;;2.53;2.20;;;6.10;99.90;;;6.62;100.00;96237.34;10436689;28;20727;-64
2023/11/02 01:41:09;;;;;;;2.27;2.13;;;6.10;99.90;;;6.69;100.00;96219.91;10437146;28;21541;-65
2023/11/02 01:46:33;;;;;;;2.20;2.10;;;6.10;99.90;;;6.81;100.00;96208.56;10434710;28;20233;-65
2023/11/02 01:52:01;;;;;;;2.53;2.33;;;6.20;99.90;;;6.64;100.00;96190.94;10436214;28;20248;-65
2023/11/02 01:57:07;;;;;;;2.23;2.10;;;6.10;99.90;;;6.49;100.00;96169.91;10435614;28;20636;-65
2023/11/02 02:02:23;;;;;;;2.67;2.47;;;6.00;99.90;;;6.49;100.00;96154.69;10435028;28;20226;-66
2023/11/02 02:07:41;;;;;;;3.33;2.60;;;5.90;99.90;;;6.50;100.00;96153.91;10436512;28;20224;-66
2023/11/02 02:13:02;;;;;;;2.70;2.50;;;5.90;99.90;;;6.66;100.00;96133.44;10434389;28;20228;-65
2023/11/02 02:18:13;;;;;;;2.37;2.27;;;6.10;99.90;;;6.67;100.00;96130.13;10438861;28;20712;-64
2023/11/02 02:23:28;;;;;;;2.87;2.50;;;6.10;99.90;;;6.65;100.00;96102.94;10437550;28;20229;-65
2023/11/02 02:29:12;;;;;;;2.77;2.57;;;6.00;99.90;;;6.63;100.00;96107.94;10434225;28;20604;-65
2023/11/02 02:34:59;;;;;;;2.80;2.60;;;6.10;99.90;;;6.62;100.00;96090.13;10407637;28;20229;-65
2023/11/02 02:40:08;;;;;;;3.20;2.90;;;6.10;99.90;;;6.70;100.00;96078.63;10437658;28;20343;-66
2023/11/02 02:45:13;;;;;;;3.10;2.90;;;6.20;99.90;;;6.89;100.00;96059.94;10435577;28;20307;-65
2023/11/02 02:50:21;;;;;;;3.10;2.90;;;6.40;99.90;;;6.98;100.00;96061.22;10432702;28;20221;-64
2023/11/02 02:55:26;;;;;;;3.10;2.40;;;6.50;99.90;;;7.20;100.00;96062.94;10432351;28;20224;-65
2023/11/02 03:00:32;;;;;;;2.60;2.40;;;6.60;99.90;;;7.12;100.00;96040.56;10436122;28;20232;-65
2023/11/02 03:05:38;;;;;;;3.13;2.80;;;6.60;99.90;;;7.04;100.00;96027.56;10434138;28;20667;-66
2023/11/02 03:10:42;;;;;;;3.17;2.97;;;6.60;99.90;;;7.07;100.00;96024.28;10432417;28;20220;-66
2023/11/02 03:15:49;;;;;;;4.23;3.60;;;6.60;99.90;;;7.13;100.00;96015.25;10428604;28;20225;-66
2023/11/02 03:20:54;;;;;;;3.57;3.33;;;6.60;99.90;;;7.29;100.00;96013.31;10430196;28;20225;-66
2023/11/02 03:26:07;;;;;;;4.97;4.43;;;6.70;99.90;;;7.31;100.00;95999.00;10431506;28;20231;-65
2023/11/02 03:31:31;;;;;;;4.00;3.70;;;6.70;99.90;;;7.56;100.00;95986.44;10432415;28;20233;-66
2023/11/02 03:37:01;;;;;;;4.17;3.77;;;7.10;99.90;;;7.95;100.00;95986.16;10432957;28;20217;-66
2023/11/02 03:42:15;;;;;;;3.40;3.10;;;7.40;99.90;;;8.16;99.49;95992.88;10433022;28;20236;-65
2023/11/02 03:47:35;;;;;;;4.17;3.07;;;7.60;99.90;;;7.89;100.00;96017.31;10432923;28;20225;-66
2023/11/02 03:52:52;;;;;;;3.43;3.23;;;7.40;99.90;;;7.95;100.00;95970.91;10431551;28;20221;-66
2023/11/02 03:58:03;;;;;;;3.83;3.53;;;7.50;99.90;;;8.27;100.00;95897.38;10429418;28;20229;-66
2023/11/02 04:03:11;;;;;;;3.23;3.03;;;7.80;99.90;;;8.28;100.00;95915.25;10442141;28;20233;-66
2023/11/02 04:08:19;;;;;;;3.57;3.00;;;7.80;99.90;;;8.59;98.36;95910.38;10445694;28;20225;-64
2023/11/02 04:13:24;;;;;;;3.87;3.50;;;8.10;99.90;;;8.29;99.27;95899.16;10439714;28;20225;-66
2023/11/02 04:18:27;;;;;;;2.97;2.78;;;7.80;99.90;;;8.35;100.00;95878.13;10444059;28;20310;-65
2023/11/02 04:23:31;;;;;;;3.10;2.90;;;7.90;99.90;;;8.46;100.00;95899.75;10445436;28;20240;-65
2023/11/02 04:28:35;;;;;;;3.03;2.83;;;8.00;99.90;;;8.56;100.00;95878.88;10444832;28;20220;-65
2023/11/02 04:33:38;;;;;;;3.30;3.03;;;8.10;99.90;;;8.64;100.00;95878.25;10443698;28;20736;-65
2023/11/02 04:38:44;;;;;;;3.27;2.97;;;8.10;99.90;;;8.62;100.00;95840.03;10444302;28;20236;-65
2023/11/02 04:43:48;;;;;;;2.90;2.70;;;8.20;99.90;;;8.70;100.00;95827.50;10444898;28;20458;-66
2023/11/02 04:48:51;;;;;;;3.90;3.50;;;8.20;99.90;;;8.79;98.71;95793.03;10444706;28;20220;-65
2023/11/02 04:53:56;;;;;;;4.30;3.47;;;8.20;99.90;;;8.69;99.39;95768.06;10447259;28;20236;-66
2023/11/02 04:58:59;;;;;;;3.03;2.87;;;8.10;99.90;;;8.49;98.72;95720.78;10443756;28;20271;-66
2023/11/02 05:04:03;;;;;;;2.73;2.53;;;8.00;99.90;;;8.78;95.89;95699.63;10443968;28;20673;-66
2023/11/02 05:09:08;;;;;;;3.80;2.70;;;8.30;99.90;;;8.92;96.81;95696.56;10449562;28;20304;-65
2023/11/02 05:14:11;;;;;;;4.73;4.33;;;8.20;99.90;;;8.59;98.45;95702.44;10439077;28;21915;-65
2023/11/02 05:19:14;;;;;;;3.73;3.43;;;8.10;99.90;;;8.69;98.02;95708.66;10438609;28;20714;-65
2023/11/02 05:24:18;;;;;;;3.10;2.90;;;8.20;99.90;;;8.76;98.06;95721.63;10436604;28;20233;-66
2023/11/02 05:29:22;;;;;;;3.93;3.50;;;8.20;99.90;;;8.78;98.78;95694.53;10435672;28;20221;-65
2023/11/02 05:34:25;;;;;;;3.47;3.17;;;8.30;99.90;;;8.87;97.37;95681.19;10439647;28;20251;-65
2023/11/02 05:39:30;;;;;;;3.80;3.50;;;8.40;99.90;;;9.05;96.54;95644.28;10437239;28;20705;-66
2023/11/02 05:44:34;;;;;;;2.83;2.63;;;8.50;99.90;;;9.27;93.30;95608.34;10438471;28;20232;-66
2023/11/02 05:49:37;;;;;;;3.50;3.20;;;8.80;99.90;;;9.72;90.82;95551.59;10436698;28;20592;-66
2023/11/02 05:54:41;;;;;;;2.50;2.40;;;9.10;99.90;;;9.80;86.74;95542.44;10436912;28;21186;-65
2023/11/02 05:59:45;;;;;;;2.67;2.58;;;9.50;99.90;;;9.95;84.37;95554.69;10437129;28;20316;-65
2023/11/02 06:04:48;;;;;;;2.22;2.05;;;9.60;99.90;;;10.38;81.58;95556.47;10437505;28;20763;-65
2023/11/02 06:09:52;;;;;;;2.38;2.15;;;10.10;99.90;;;10.68;76.92;95555.38;10437963;28;20751;-66
2023/11/02 06:14:56;;;;;;;1.85;1.75;;;10.40;99.90;;;10.70;78.92;95540.94;10430236;28;20221;-65
2023/11/02 06:19:59;;;;;;;1.98;1.50;;;10.40;99.90;;;10.71;77.67;95536.69;10433850;28;20225;-65
2023/11/02 06:25:05;;;;;;;2.38;2.17;;;10.30;99.90;;;10.79;81.26;95538.53;10435688;28;20596;-66
2023/11/02 06:30:10;;;;;;;3.53;3.22;;;10.20;99.90;;;10.62;81.42;95550.16;10431158;28;20232;-65
2023/11/02 06:35:14;;;;;;;4.63;4.22;;;10.00;99.90;;;10.57;82.60;95607.94;10432800;28;20237;-66
2023/11/02 06:40:19;;;;;;;4.43;4.13;;;10.00;99.90;;;10.74;84.62;95672.16;10433278;28;20285;-65
2023/11/02 06:45:22;;;;;;;2.60;2.40;;;10.00;99.90;;;10.29;89.37;95658.41;10436659;28;20229;-66
2023/11/02 06:50:25;;;;;;;9.10;8.40;;;9.80;99.90;;;10.06;91.92;95674.88;10431416;28;20240;-66
2023/11/02 06:55:30;;;;;;;3.00;2.80;;;9.70;99.90;;;9.88;95.84;95688.91;10433435;28;20232;-66
2023/11/02 07:00:33;;;;;;;2.70;2.50;;;9.50;99.90;;;9.68;98.26;95697.75;10434100;28;20221;-65
2023/11/02 07:05:37;;;;;;;3.60;3.30;;;9.30;99.90;;;9.73;100.00;95720.81;10434455;28;20237;-66
2023/11/02 07:10:41;;;;;;;4.18;3.75;;;9.20;99.90;;;9.45;100.00;95702.28;10430872;28;20225;-66
2023/11/02 07:15:44;;;;;;;2.88;2.58;;;9.00;99.90;;;9.24;100.00;95684.72;10430620;28;20233;-66
2023/11/02 07:20:48;;;;;;;2.55;2.35;;;8.90;99.90;;;9.18;100.00;95682.00;10428204;28;20233;-66
2023/11/02 07:25:52;;;;;;;2.60;2.40;;;8.80;99.90;;;9.08;100.00;95649.47;10430677;28;20229;-65
2023/11/02 07:30:56;;;;;;;3.53;3.25;;;8.70;99.90;;;9.17;100.00;95682.84;10429714;28;20228;-66
2023/11/02 07:35:59;;;;;;;3.17;2.88;;;8.70;99.90;;;8.99;100.00;95678.09;10431412;28;20696;-65
2023/11/02 07:41:06;;;;;;;2.10;1.90;;;8.60;99.90;;;9.00;100.00;95655.19;10432744;28;20736;-65
2023/11/02 07:46:09;;;;;;;2.00;1.90;;;8.60;99.90;;;9.02;100.00;95656.13;10432611;28;20224;-65
2023/11/02 07:51:16;;;;;;;3.55;3.25;;;8.60;99.90;;;9.06;100.00;95646.00;10435188;28;20237;-65
2023/11/02 07:56:21;;;;;;;3.90;3.60;;;8.60;99.90;;;9.17;100.00;95639.50;10431519;28;20248;-66
2023/11/02 08:01:24;;;;;;;4.40;4.10;;;8.70;99.90;;;9.20;100.00;95621.75;10432368;28;20224;-66
2023/11/02 08:06:28;;;;;;;4.57;4.18;;;8.70;99.90;;;9.25;100.00;95607.44;10434936;28;20250;-66
2023/11/02 08:11:39;;;;;;;4.20;3.80;;;8.70;99.90;;;9.22;100.00;95604.81;10433854;28;20228;-66
2023/11/02 08:16:43;;;;;;;4.18;3.88;;;8.80;99.90;;;9.35;100.00;95594.09;10432160;28;20691;-66
2023/11/02 08:21:46;;;;;;;3.60;3.38;;;8.90;99.90;;;9.40;100.00;95584.88;10432418;28;20221;-66
2023/11/02 08:26:51;;;;;;;3.50;3.20;;;8.90;99.90;;;9.24;100.00;95573.44;10431846;28;20310;-66
2023/11/02 08:31:54;;;;;;;4.25;3.85;;;8.80;99.90;;;9.31;100.00;95555.75;10428025;28;20232;-66
2023/11/02 08:36:57;;;;;;;4.90;4.45;;;8.80;99.90;;;9.17;100.00;95524.81;10428410;28;20224;-66
2023/11/02 08:42:01;;;;;;;3.92;3.55;;;8.80;99.90;;;9.08;100.00;95545.84;10430802;28;20475;-66
2023/11/02 08:47:05;;;;;;;4.13;3.83;;;8.70;99.90;;;9.19;100.00;95538.47;10438575;28;20229;-66
2023/11/02 08:52:08;;;;;;;4.87;4.53;;;8.80;99.90;;;9.19;100.00;95558.88;10442306;28;20324;-67
2023/11/02 08:57:13;;;;;;;14.23;13.13;;;8.80;99.90;;;9.27;100.00;95544.63;10444510;28;20225;-66
2023/11/02 09:02:17;;;;;;;7.60;6.80;;;8.90;99.90;;;9.36;100.00;95542.28;10444778;28;20279;-66
2023/11/02 09:07:20;;;;;;;5.13;4.72;;;8.90;99.90;;;9.23;100.00;95528.38;10443404;28;20327;-66
2023/11/02 09:12:25;;;;;;;5.57;5.07;;;8.90;99.90;;;9.18;100.00;95495.97;10441108;28;20709;-66
2023/11/02 09:17:28;;;;;;;4.10;3.70;;;8.80;99.90;;;9.21;100.00;95501.13;10439642;28;20260;-66
2023/11/02 09:22:31;;;;;;;3.80;3.50;;;8.90;99.90;;;9.28;100.00;95474.97;10443298;28;20306;-66
2023/11/02 09:27:36;;;;;;;3.53;3.33;;;8.90;99.90;;;9.54;100.00;95462.81;10442102;28;20780;-66
2023/11/02 09:32:39;;;;;;;3.92;3.63;;;9.20;99.90;;;9.65;100.00;95435.00;10444056;28;20311;-66
2023/11/02 09:37:42;;;;;;;5.85;4.03;;;9.20;99.90;;;9.65;100.00;95443.50;10449805;28;20225;-66
2023/11/02 09:42:47;;;;;;;5.05;4.50;;;9.30;99.90;;;9.73;100.00;95446.22;10440192;28;20275;-67
2023/11/02 09:47:50;;;;;;;4.32;3.92;;;9.30;99.90;;;9.69;100.00;95459.72;10446003;28;20287;-67
2023/11/02 09:52:55;;;;;;;3.55;3.25;;;9.30;99.90;;;9.67;100.00;95479.22;10441550;28;20229;-66
2023/11/02 09:58:01;;;;;;;3.88;3.30;;;9.30;99.90;;;9.69;100.00;95510.72;10441582;28;20312;-66
2023/11/02 10:03:04;;;;;;;3.70;3.50;;;9.30;99.90;;;9.85;100.00;95530.66;10441790;28;20236;-66
2023/11/02 10:08:09;;;;;;;5.15;3.80;;;9.40;99.90;;;9.91;100.00;95543.53;10439822;28;20237;-67
2023/11/02 10:13:13;;;;;;;4.80;3.75;;;9.50;99.90;;;10.00;100.00;95557.34;10443526;28;20229;-66
2023/11/02 10:18:17;;;;;;;4.65;4.25;;;9.60;99.90;;;9.98;100.00;95549.63;10441432;28;20249;-66
2023/11/02 10:23:21;;;;;;;4.75;4.22;;;9.60;99.90;;;9.98;100.00;95551.34;10444074;28;20280;-66
2023/11/02 10:28:25;;;;;;;4.95;3.70;;;9.50;99.90;;;10.10;100.00;95541.38;10437818;28;20224;-67
2023/11/02 10:33:30;;;;;;;3.58;3.28;;;9.70;99.90;;;10.15;100.00;95548.31;10441363;28;20248;-66
2023/11/02 10:38:34;;;;;;;3.53;3.22;;;9.80;99.90;;;10.22;100.00;95535.69;10442827;28;20302;-66
2023/11/02 10:43:39;;;;;;;3.92;3.63;;;9.80;99.90;;;10.30;100.00;95540.16;10444873;28;20601;-66
2023/11/02 10:48:43;;;;;;;3.35;3.15;;;9.90;99.90;;;10.41;100.00;95530.13;10437331;28;20235;-66
2023/11/02 10:54:10;;;;;;;3.88;3.58;;;10.00;99.90;;;10.46;100.00;95527.69;10445346;28;20324;-66
2023/11/02 10:59:16;;;;;;;5.05;4.65;;;10.00;99.90;;;10.51;100.00;95534.59;10421025;22;20253;-61
2023/11/02 11:04:20;;;;;;;4.57;4.25;;;10.10;99.90;;;10.64;100.00;95515.25;10408298;28;20233;-62
2023/11/02 11:09:24;;;;;;;4.13;3.90;;;10.20;99.90;;;10.73;100.00;95512.88;10402289;28;20222;-63
2023/11/02 11:14:30;;;;;;;2.97;2.78;;;10.30;99.90;;;10.94;100.00;95496.22;10405881;28;20221;-62
2023/11/02 11:19:35;;;;;;;2.33;2.13;;;10.40;99.90;;;11.02;100.00;95492.09;10400476;28;20316;-62
2023/11/02 11:24:38;;;;;;;2.40;2.20;;;10.50;99.90;;;11.13;100.00;95493.13;10393087;28;20231;-62
2023/11/02 11:29:45;;;;;;;2.28;2.17;;;10.50;99.90;;;11.19;100.00;95477.88;10396030;28;20229;-61
2023/11/02 11:35:17;;;;;;;2.20;2.00;;;10.70;99.90;;;11.08;100.00;95478.56;10396685;28;20222;-62
2023/11/02 11:40:34;;;;;;;2.00;1.77;;;10.60;99.90;;;11.11;100.00;95468.38;10393835;28;20228;-62
2023/11/02 11:45:49;;;;;;;2.22;2.10;;;10.60;99.90;;;10.97;100.00;95470.69;10398664;28;20237;-62
2023/11/02 11:50:52;;;;;;;2.15;2.05;;;10.50;99.90;;;11.02;100.00;95469.94;10389919;28;20623;-62
2023/11/02 11:56:00;;;;;;;2.13;1.73;;;10.50;99.90;;;10.91;100.00;95460.38;10397025;28;20635;-62
2023/11/02 12:01:17;;;;;;;1.85;1.75;;;10.60;99.90;;;10.95;100.00;95451.91;10393086;28;20225;-61
2023/11/02 12:06:40;;;;;;;2.10;1.60;;;10.50;99.90;;;10.77;100.00;95448.22;10395475;28;20228;-62
2023/11/02 12:11:44;;;;;;;1.50;1.40;;;10.40;99.90;;;10.88;100.00;95419.44;10394045;28;20252;-63
2023/11/02 12:16:51;;;;;;;1.77;1.50;;;10.50;99.90;;;10.89;100.00;95427.13;10392251;28;20257;-62
2023/11/02 12:21:58;;;;;;;1.38;1.27;;;10.40;99.90;;;10.73;100.00;95435.34;10394715;28;20567;-63
2023/11/02 12:27:12;;;;;;;1.33;1.25;;;10.30;99.90;;;10.72;100.00;95414.06;10403233;28;20229;-62
2023/11/02 12:32:16;;;;;;;1.50;1.40;;;10.30;99.90;;;10.66;100.00;95388.41;10399753;28;20225;-62
2023/11/02 12:37:20;;;;;;;2.38;1.77;;;10.20;99.90;;;10.69;100.00;95372.28;10403358;28;20233;-62
2023/11/02 12:42:23;;;;;;;2.13;2.00;;;10.20;99.90;;;10.69;100.00;95347.59;10406621;28;20240;-62
2023/11/02 12:47:39;;;;;;;2.03;1.80;;;10.20;99.90;;;10.63;100.00;95342.41;10403757;28;20232;-63
2023/11/02 12:52:45;;;;;;;2.65;2.22;;;10.20;99.90;;;10.92;100.00;95329.19;10404110;28;20225;-62
2023/11/02 12:57:49;;;;;;;2.22;2.08;;;10.40;99.90;;;10.93;100.00;95301.13;10406040;28;20311;-62
2023/11/02 13:03:11;;;;;;;1.95;1.80;;;10.40;99.90;;;10.92;100.00;95299.38;10406633;28;20783;-63
2023/11/02 13:08:19;;;;;;;1.90;1.80;;;10.40;99.90;;;10.63;100.00;95316.84;10405076;28;20232;-62
2023/11/02 13:13:22;;;;;;;1.73;1.60;;;10.30;99.90;;;10.73;100.00;95311.06;10405361;28;20229;-62
2023/11/02 13:18:27;;;;;;;2.67;2.38;;;10.20;99.90;;;10.55;100.00;95303.09;10401842;28;20229;-62
2023/11/02 13:23:30;;;;;;;2.60;2.38;;;10.10;99.90;;;10.66;100.00;95276.03;10398651;28;20376;-61
2023/11/02 13:28:33;;;;;;;3.42;2.38;;;10.20;99.90;;;10.66;100.00;95244.50;10395106;28;20244;-62
2023/11/02 13:33:41;;;;;;;2.13;1.83;;;10.20;99.90;;;10.66;100.00;95273.47;10399456;28;20229;-63
2023/11/02 13:38:45;;;;;;;2.00;1.90;;;10.20;99.90;;;10.47;100.00;95259.59;10399207;28;20232;-63
2023/11/02 13:43:49;;;;;;;2.25;2.05;;;10.10;99.90;;;10.32;100.00;95265.28;10397918;28;20229;-63
2023/11/02 13:48:56;;;;;;;2.88;2.67;;;10.00;99.90;;;10.36;100.00;95259.41;10402554;28;20798;-63
2023/11/02 13:53:59;;;;;;;2.03;1.90;;;10.00;99.90;;;10.28;100.00;95289.06;10401905;28;20585;-63
2023/11/02 13:59:03;;;;;;;2.55;2.35;;;9.90;99.90;;;10.20;100.00;95247.19;10397378;28;20244;-63
2023/11/02 14:04:08;;;;;;;2.58;2.08;;;9.80;99.90;;;10.13;100.00;95210.53;10399645;28;20320;-62
2023/11/02 14:09:12;;;;;;;4.60;3.60;;;9.70;99.90;;;10.22;100.00;95220.00;10400659;28;20257;-63
2023/11/02 14:14:15;;;;;;;3.97;3.53;;;9.80;99.90;;;10.31;100.00;95299.31;10396231;28;20506;-62
2023/11/02 14:19:20;;;;;;;3.42;3.17;;;9.80;99.90;;;10.31;100.00;95255.91;10398174;28;20237;-61
2023/11/02 14:24:23;;;;;;;2.80;2.50;;;9.90;99.90;;;10.35;100.00;95188.75;10394236;28;20237;-62
2023/11/02 14:29:26;;;;;;;3.50;3.20;;;9.80;99.90;;;10.31;100.00;95187.00;10395243;28;20233;-63
2023/11/02 14:34:31;;;;;;;7.38;6.10;;;9.90;99.90;;;10.28;100.00;95265.22;10393901;28;20228;-62
2023/11/02 14:39:34;;;;;;;8.27;7.57;;;9.90;99.90;;;10.33;100.00;95238.94;10398066;28;20226;-63
2023/11/02 14:44:38;;;;;;;8.27;7.47;;;9.90;99.90;;;10.35;100.00;95224.47;10391851;28;20236;-62
2023/11/02 14:49:43;;;;;;;6.00;5.50;;;9.90;99.90;;;10.36;100.00;95251.75;10397897;28;20229;-62
2023/11/02 14:54:47;;;;;;;7.30;6.70;;;9.90;99.90;;;10.37;100.00;95271.34;10396756;28;20309;-62
2023/11/02 15:00:00;;;;;;;10.02;9.13;;;9.90;99.90;;;10.39;100.00;95286.69;10397751;28;20598;-63
2023/11/02 15:05:06;;;;;;;14.13;12.82;;;9.90;99.90;;;10.41;100.00;95263.72;10396512;28;20348;-62
2023/11/02 15:10:11;;;;;;;12.35;11.15;;;9.80;99.90;;;10.35;100.00;95252.56;10394204;28;20230;-62
2023/11/02 15:15:14;;;;;;;8.60;7.80;;;9.80;99.90;;;10.27;100.00;95266.94;10394204;28;20252;-62
2023/11/02 15:20:20;;;;;;;7.38;6.68;;;9.80;99.90;;;10.30;100.00;95254.22;10392423;28;20708;-62
2023/11/02 15:25:24;;;;;;;7.57;6.88;;;9.70;99.90;;;10.26;100.00;95234.53;10392318;28;20729;-62
2023/11/02 15:30:27;;;;;;;12.75;11.65;;;9.70;99.90;;;10.18;100.00;95241.19;10385885;28;20234;-62
2023/11/02 15:35:31;;;;;;;9.48;8.60;;;9.70;99.90;;;10.24;100.00;95243.84;10393912;28;20729;-62
2023/11/02 15:40:36;;;;;;;9.30;8.40;;;9.60;99.90;;;10.18;100.00;95210.56;10394547;28;20668;-63
2023/11/02 15:45:39;;;;;;;13.90;12.43;;;9.60;99.90;;;9.99;100.00;95183.94;10395161;28;20229;-63
2023/11/02 15:50:45;;;;;;;9.35;8.45;;;9.40;99.90;;;10.07;100.00;95178.91;10392660;28;20229;-62
2023/11/02 15:55:48;;;;;;;8.27;7.55;;;9.50;99.90;;;10.41;100.00;95157.31;10393740;28;20689;-62
2023/11/02 16:00:52;;;;;;;13.85;11.25;;;9.70;99.90;;;10.08;100.00;95158.53;10391888;28;20218;-63
2023/11/02 16:05:58;;;;;;;10.27;9.27;;;9.50;99.90;;;9.99;100.00;95172.88;10395965;28;20661;-62
2023/11/02 16:11:06;;;;;;;7.95;7.25;;;9.40;99.90;;;10.02;100.00;95172.91;10392283;28;20233;-62
2023/11/02 16:16:10;;;;;;;6.07;5.57;;;9.40;99.90;;;10.10;100.00;95184.06;10389802;28;20241;-61
2023/11/02 16:21:26;;;;;;;6.90;6.38;;;9.40;99.90;;;10.09;100.00;95156.84;10393207;28;21003;-63
2023/11/02 16:26:30;;;;;;;6.53;6.03;;;9.40;99.90;;;10.02;100.00;95127.84;10392892;28;20806;-63
2023/11/02 16:31:33;;;;;;;7.80;7.10;;;9.30;99.90;;;10.06;100.00;95108.31;10390057;28;20367;-63
2023/11/02 16:36:45;;;;;;;9.10;8.30;;;9.40;99.90;;;10.18;100.00;95133.16;10392079;28;20230;-63
2023/11/02 16:41:50;;;;;;;6.30;5.72;;;9.40;99.90;;;10.07;100.00;95151.72;10395618;28;20226;-64
2023/11/02 16:46:55;;;;;;;6.35;5.85;;;9.40;99.90;;;10.02;100.00;95183.13;10392508;28;20249;-64
2023/11/02 16:52:03;;;;;;;6.88;6.28;;;9.40;99.90;;;9.92;100.00;95192.31;10394991;28;20735;-62
2023/11/02 16:57:07;;;;;;;4.95;4.55;;;9.30;99.90;;;10.08;100.00;95188.31;10390940;28;20225;-63
2023/11/02 17:02:11;;;;;;;5.20;4.80;;;9.30;99.90;;;9.89;100.00;95197.34;10391249;28;20768;-62
2023/11/02 17:07:16;;;;;;;9.02;8.32;;;9.30;99.90;;;9.84;100.00;95159.03;10397833;28;20238;-63
2023/11/02 17:12:19;;;;;;;8.85;8.15;;;9.20;99.90;;;9.79;100.00;95164.91;10400492;28;20737;-62
2023/11/02 17:17:22;;;;;;;7.35;6.75;;;9.20;99.90;;;9.78;100.00;95164.00;10401901;28;20748;-63
2023/11/02 17:22:27;;;;;;;6.70;6.10;;;9.20;99.90;;;9.79;100.00;95175.94;10402704;28;20747;-63
2023/11/02 17:27:30;;;;;;;4.53;4.22;;;9.20;99.90;;;9.88;100.00;95176.09;10402831;28;20297;-62
2023/11/02 17:32:33;;;;;;;3.80;3.55;;;9.20;99.90;;;9.87;100.00;95176.06;10399944;28;20311;-63
2023/11/02 17:37:38;;;;;;;3.70;3.40;;;9.20;99.90;;;9.84;100.00;95187.09;10400045;28;20237;-62
2023/11/02 17:42:42;;;;;;;3.28;2.97;;;9.10;99.90;;;9.84;100.00;95187.09;10399056;28;20768;-63
2023/11/02 17:47:45;;;;;;;4.20;3.80;;;9.20;99.90;;;9.77;100.00;95195.47;10403519;28;20299;-63
2023/11/02 17:52:50;;;;;;;4.82;4.43;;;9.20;99.90;;;9.57;100.00;95173.88;10396441;28;20237;-62
2023/11/02 17:57:53;;;;;;;5.40;4.93;;;9.00;99.90;;;9.44;100.00;95163.47;10398665;28;20233;-63
2023/11/02 18:02:56;;;;;;;4.03;3.72;;;8.90;99.90;;;9.44;100.00;95173.66;10401623;28;20222;-63
2023/11/02 18:08:02;;;;;;;4.55;4.25;;;8.90;99.90;;;9.43;100.00;95151.53;10399451;28;20257;-63
2023/11/02 18:13:05;;;;;;;3.35;3.10;;;8.90;99.90;;;9.41;100.00;95145.56;10402391;28;20218;-65
2023/11/02 18:18:08;;;;;;;3.22;3.03;;;8.90;99.90;;;9.41;100.00;95158.31;10400427;28;20243;-62
2023/11/02 18:23:13;;;;;;;5.63;5.20;;;8.90;99.90;;;9.50;100.00;95177.13;10396698;28;20226;-63
2023/11/02 18:28:17;;;;;;;8.90;8.20;;;8.90;99.90;;;9.45;100.00;95189.81;10398275;28;20316;-62
2023/11/02 18:33:20;;;;;;;6.88;6.38;;;8.80;99.90;;;9.41;100.00;95200.78;10402684;28;20225;-63
2023/11/02 18:38:26;;;;;;;6.38;5.88;;;8.80;99.90;;;9.33;100.00;95190.44;10397875;28;20328;-62
2023/11/02 18:43:31;;;;;;;7.95;7.32;;;8.70;99.90;;;9.19;100.00;95194.44;10397795;28;20236;-62
2023/11/02 18:48:35;;;;;;;7.13;6.43;;;8.60;99.90;;;9.12;100.00;95164.56;10397290;28;20245;-63
2023/11/02 18:53:40;;;;;;;5.47;4.97;;;8.50;99.90;;;9.12;100.00;95177.28;10387021;28;20239;-63
2023/11/02 18:58:43;;;;;;;7.45;6.90;;;8.60;99.90;;;9.11;100.00;95198.53;10396733;28;20753;-62
2023/11/02 19:03:47;;;;;;;5.45;5.00;;;8.50;99.90;;;9.12;100.00;95205.31;10400197;28;20226;-63
2023/11/02 19:08:52;;;;;;;4.07;3.63;;;8.60;99.90;;;9.13;100.00;95202.81;10393401;28;20229;-63
2023/11/02 19:13:57;;;;;;;9.88;8.98;;;8.50;99.90;;;9.26;100.00;95183.50;10395356;28;20226;-63
2023/11/02 19:19:00;;;;;;;11.07;10.00;;;8.60;99.90;;;8.98;100.00;95174.47;10398564;28;20229;-63
2023/11/02 19:24:08;;;;;;;10.85;9.88;;;8.40;99.90;;;9.00;100.00;95176.22;10433982;22;20282;-67
2023/11/02 19:29:13;;;;;;;10.13;9.32;;;8.40;99.90;;;9.08;100.00;95184.03;10480404;28;20248;-67
2023/11/02 19:34:16;;;;;;;10.23;9.30;;;8.40;99.90;;;9.16;100.00;95209.66;10479572;28;20273;-67
2023/11/02 19:39:21;;;;;;;8.80;8.20;;;8.40;99.90;;;8.97;100.00;95237.31;10480712;28;20224;-67
2023/11/02 19:44:24;;;;;;;10.95;9.95;;;8.40;99.90;;;8.89;100.00;95253.25;10477901;28;20312;-67
2023/11/02 19:49:28;;;;;;;22.27;19.38;;;8.30;99.90;;;8.86;100.00;95217.53;10475199;28;20279;-67
2023/11/02 19:54:33;;;;;;;20.23;16.93;;;8.30;99.90;;;8.88;100.00;95237.13;10481249;28;20227;-64
2023/11/02 19:59:36;;;;;;;19.00;16.27;;;8.20;99.90;;;8.71;100.00;95224.03;10483159;28;20228;-67
2023/11/02 20:04:39;;;;;;;18.23;15.27;;;8.10;99.90;;;8.75;100.00;95214.75;10477358;28;20235;-66
2023/11/02 20:09:45;;;;;;;46.50;32.40;;;8.10;99.90;;;8.74;100.00;95207.97;10475376;28;20228;-65
2023/11/02 20:14:48;;;;;;;38.88;29.00;;;8.10;99.90;;;8.68;100.00;95218.88;10477491;28;20224;-66
2023/11/02 20:19:52;;;;;;;24.77;18.53;;;8.10;99.90;;;8.62;100.00;95244.22;10479990;28;20262;-66
2023/11/02 20:24:57;;;;;;;20.88;16.23;;;8.00;99.90;;;8.71;100.00;95234.22;10481443;28;20233;-65
2023/11/02 20:30:01;;;;;;;136.10;94.53;;;8.10;99.90;;;8.69;100.00;95196.81;10475410;28;20254;-66
2023/11/02 20:35:05;;;;;;;30.45;21.75;;;8.10;99.90;;;8.67;100.00;95157.72;10480572;28;20238;-66
2023/11/02 20:40:12;;;;;;;10.93;9.10;;;8.10;99.90;;;8.70;100.00;95213.81;10481186;28;20907;-66
2023/11/02 20:45:15;;;;;;;5.77;5.27;;;8.10;99.90;;;8.74;100.00;95218.16;10478931;28;20740;-66
2023/11/02 20:50:19;;;;;;;5.90;5.40;;;8.10;99.90;;;8.83;100.00;95231.06;10488328;28;20715;-66
2023/11/02 20:55:24;;;;;;;7.65;5.97;;;8.20;99.90;;;8.80;100.00;95213.19;10487205;28;20230;-66
2023/11/02 21:00:27;;;;;;;5.10;4.60;;;8.20;99.90;;;8.70;100.00;95188.34;10484310;28;20228;-66
2023/11/02 21:05:34;;;;;;;5.03;4.53;;;8.10;99.90;;;8.57;100.00;95172.81;10487836;28;20232;-66
2023/11/02 21:10:39;;;;;;;5.30;4.80;;;7.90;99.90;;;8.55;100.00;95165.97;10483603;28;20805;-66
2023/11/02 21:15:42;;;;;;;7.77;5.67;;;7.90;99.90;;;8.48;100.00;95169.22;10486780;28;20228;-67
2023/11/02 21:20:47;;;;;;;10.00;9.17;;;7.80;99.90;;;8.34;100.00;95151.09;10486413;28;20240;-67